createdAt,value
2022-08-07T00:00:18.878Z,4.47
2022-08-07T00:03:08.599Z,6.28
2022-08-07T00:05:38.137Z,8.23
2022-08-07T00:08:07.859Z,5.90
2022-08-07T00:10:48.000Z,6.03
2022-08-07T00:13:26.735Z,7.07
2022-08-07T00:15:56.867Z,5.88
2022-08-07T00:18:28.583Z,6.57
2022-08-07T00:21:01.434Z,7.95
2022-08-07T00:26:12.858Z,10.07
2022-08-07T00:28:55.694Z,9.48
2022-08-07T00:31:38.180Z,6.90
2022-08-07T00:34:09.829Z,4.97
2022-08-07T00:36:43.338Z,10.60
2022-08-07T00:39:17.001Z,11.85
2022-08-07T00:42:01.665Z,5.85
2022-08-07T00:44:30.561Z,5.20
2022-08-07T00:47:06.525Z,7.60
2022-08-07T00:50:19.403Z,6.90
2022-08-07T00:52:33.182Z,7.93
2022-08-07T00:55:04.699Z,11.65
2022-08-07T00:57:38.180Z,11.93
2022-08-07T01:00:23.623Z,5.50
2022-08-07T01:02:51.706Z,8.18
2022-08-07T01:05:20.861Z,7.30
2022-08-07T01:07:52.712Z,8.07
2022-08-07T01:10:22.716Z,4.75
2022-08-07T01:12:53.880Z,5.78
2022-08-07T01:15:35.905Z,6.25
2022-08-07T01:18:17.196Z,9.43
2022-08-07T01:20:57.300Z,8.45
2022-08-07T01:23:38.778Z,8.45
2022-08-07T01:26:13.192Z,7.53
2022-08-07T01:28:48.617Z,9.77
2022-08-07T01:31:30.021Z,7.40
2022-08-07T01:34:10.689Z,11.13
2022-08-07T01:36:44.072Z,9.15
2022-08-07T01:39:17.508Z,7.60
2022-08-07T01:42:38.883Z,9.85
2022-08-07T01:44:52.765Z,11.55
2022-08-07T01:48:18.555Z,7.03
2022-08-07T01:50:10.814Z,7.72
2022-08-07T01:52:40.884Z,11.82
2022-08-07T01:55:22.246Z,7.20
2022-08-07T01:58:01.184Z,11.55
2022-08-07T02:00:35.585Z,11.82
2022-08-07T02:03:21.672Z,11.75
2022-08-07T02:05:59.340Z,5.93
2022-08-07T02:08:31.315Z,8.68
2022-08-07T02:11:00.629Z,7.25
2022-08-07T02:13:57.218Z,9.07
2022-08-07T02:16:28.703Z,6.15
2022-08-07T02:20:06.750Z,13.75
2022-08-07T02:21:58.860Z,6.70
2022-08-07T02:24:29.345Z,7.30
2022-08-07T02:27:01.139Z,11.50
2022-08-07T02:29:32.325Z,7.47
2022-08-07T02:32:04.590Z,13.23
2022-08-07T02:34:33.936Z,4.40
2022-08-07T02:37:08.279Z,7.25
2022-08-07T02:39:43.086Z,4.82
2022-08-07T02:42:18.115Z,10.35
2022-08-07T02:44:51.948Z,8.65
2022-08-07T02:47:25.169Z,8.93
2022-08-07T02:50:02.212Z,7.40
2022-08-07T02:52:38.755Z,6.53
2022-08-07T02:55:27.654Z,4.32
2022-08-07T02:58:11.927Z,7.20
2022-08-07T03:00:46.900Z,8.48
2022-08-07T03:03:22.547Z,10.20
2022-08-07T03:05:54.600Z,10.55
2022-08-07T03:08:26.899Z,11.48
2022-08-07T03:11:00.538Z,8.75
2022-08-07T03:13:39.060Z,15.93
2022-08-07T03:16:18.088Z,11.45
2022-08-07T03:18:51.995Z,12.63
2022-08-07T03:21:20.852Z,16.92
2022-08-07T03:24:19.376Z,47.03
2022-08-07T03:26:42.842Z,90.22
2022-08-07T03:29:21.247Z,57.88
2022-08-07T03:31:51.664Z,75.47
2022-08-07T03:34:22.865Z,54.38
2022-08-07T03:37:00.952Z,56.88
2022-08-07T03:39:59.350Z,87.82
2022-08-07T03:42:30.880Z,66.38
2022-08-07T03:44:59.771Z,96.97
2022-08-07T03:47:48.240Z,74.82
2022-08-07T03:50:22.861Z,55.72
2022-08-07T03:52:54.085Z,82.32
2022-08-07T03:55:23.680Z,61.30
2022-08-07T03:59:05.688Z,36.47
2022-08-07T04:01:02.342Z,24.98
2022-08-07T04:03:49.681Z,20.60
2022-08-07T04:06:37.615Z,24.42
2022-08-07T04:09:15.859Z,16.85
2022-08-07T04:12:23.871Z,36.53
2022-08-07T04:14:46.019Z,24.33
2022-08-07T04:17:20.884Z,15.45
2022-08-07T04:19:54.213Z,17.08
2022-08-07T04:22:28.824Z,12.70
2022-08-07T04:25:01.617Z,12.02
2022-08-07T04:27:35.468Z,10.00
2022-08-07T04:30:35.943Z,12.43
2022-08-07T04:35:39.550Z,11.68
2022-08-07T04:38:16.302Z,10.32
2022-08-07T04:40:53.003Z,13.23
2022-08-07T04:44:10.578Z,9.90
2022-08-07T04:47:03.797Z,13.55
2022-08-07T04:50:13.613Z,9.13
2022-08-07T04:53:00.361Z,12.00
2022-08-07T04:58:11.508Z,5.28
2022-08-07T04:59:17.047Z,6.90
2022-08-07T05:02:11.401Z,4.70
2022-08-07T05:04:50.275Z,7.25
2022-08-07T05:07:48.565Z,6.78
2022-08-07T05:10:27.629Z,3.63
2022-08-07T05:13:10.069Z,4.50
2022-08-07T05:15:51.600Z,7.38
2022-08-07T05:18:34.909Z,3.78
2022-08-07T05:21:04.775Z,3.78
2022-08-07T05:23:42.711Z,2.55
2022-08-07T05:26:23.608Z,3.90
2022-08-07T05:31:37.696Z,3.33
2022-08-07T05:34:12.228Z,10.80
2022-08-07T05:36:49.169Z,6.13
2022-08-07T05:40:17.544Z,8.02
2022-08-07T05:42:34.208Z,4.55
2022-08-07T05:45:26.243Z,3.83
2022-08-07T05:48:02.548Z,4.50
2022-08-07T05:50:44.877Z,4.18
2022-08-07T05:54:11.955Z,4.97
2022-08-07T05:56:06.812Z,4.43
2022-08-07T05:58:41.580Z,2.28
2022-08-07T06:01:20.818Z,2.00
2022-08-07T06:03:58.623Z,2.92
2022-08-07T06:06:35.284Z,3.38
2022-08-07T06:09:07.889Z,3.63
2022-08-07T06:11:40.585Z,5.32
2022-08-07T06:14:11.499Z,5.63
2022-08-07T06:16:50.467Z,2.95
2022-08-07T06:19:57.721Z,2.70
2022-08-07T06:22:20.560Z,4.32
2022-08-07T06:25:01.345Z,4.38
2022-08-07T06:27:59.597Z,2.55
2022-08-07T06:30:32.488Z,0.75
2022-08-07T06:33:10.057Z,4.85
2022-08-07T06:35:48.193Z,2.78
2022-08-07T06:38:36.197Z,5.78
2022-08-07T06:41:09.814Z,3.25
2022-08-07T06:43:46.526Z,3.85
2022-08-07T06:46:31.380Z,3.75
2022-08-07T06:49:05.170Z,3.90
2022-08-07T06:51:49.864Z,4.68
2022-08-07T06:55:34.391Z,4.32
2022-08-07T06:57:10.137Z,3.42
2022-08-07T07:00:13.921Z,7.60
2022-08-07T07:02:53.321Z,2.67
2022-08-07T07:06:03.414Z,5.72
2022-08-07T07:08:12.319Z,3.78
2022-08-07T07:10:47.281Z,4.75
2022-08-07T07:13:57.402Z,4.07
2022-08-07T07:16:15.051Z,2.55
2022-08-07T07:18:52.517Z,1.60
2022-08-07T07:21:27.231Z,2.17
2022-08-07T07:24:12.522Z,4.85
2022-08-07T07:26:41.424Z,6.57
2022-08-07T07:29:56.058Z,4.75
2022-08-07T07:32:14.076Z,7.50
2022-08-07T07:34:48.902Z,1.70
2022-08-07T07:37:21.891Z,1.73
2022-08-07T07:40:15.317Z,3.45
2022-08-07T07:42:53.760Z,3.72
2022-08-07T07:46:38.457Z,5.63
2022-08-07T07:48:35.072Z,2.05
2022-08-07T07:51:07.675Z,3.42
2022-08-07T07:53:51.808Z,2.75
2022-08-07T07:56:29.732Z,3.25
2022-08-07T07:59:06.001Z,3.47
2022-08-07T08:02:01.998Z,2.25
2022-08-07T08:04:27.394Z,2.63
2022-08-07T08:06:55.733Z,4.30
2022-08-07T08:09:29.402Z,4.50
2022-08-07T08:12:03.890Z,2.50
2022-08-07T08:14:37.072Z,3.03
2022-08-07T08:17:14.209Z,4.47
2022-08-07T08:20:17.116Z,1.98
2022-08-07T08:23:09.429Z,3.67
2022-08-07T08:25:57.337Z,2.90
2022-08-07T08:28:37.697Z,1.50
2022-08-07T08:31:30.347Z,4.13
2022-08-07T08:34:10.607Z,2.30
2022-08-07T08:36:41.703Z,2.45
2022-08-07T08:39:15.281Z,2.53
2022-08-07T08:42:05.770Z,3.53
2022-08-07T08:47:52.641Z,3.08
2022-08-07T08:50:39.954Z,4.70
2022-08-07T08:53:19.978Z,2.35
2022-08-07T08:55:55.238Z,4.53
2022-08-07T08:58:37.497Z,4.40
2022-08-07T09:01:18.432Z,4.10
2022-08-07T09:03:56.831Z,2.47
2022-08-07T09:06:38.196Z,3.30
2022-08-07T09:09:36.754Z,2.08
2022-08-07T09:12:31.129Z,0.77
2022-08-07T09:16:21.901Z,0.70
2022-08-07T09:18:15.895Z,1.65
2022-08-07T09:20:58.110Z,1.48
2022-08-07T09:24:31.271Z,2.58
2022-08-07T09:26:50.944Z,1.90
2022-08-07T09:30:06.180Z,4.40
2022-08-07T09:32:59.085Z,4.78
2022-08-07T09:36:12.916Z,1.80
2022-08-07T09:38:53.696Z,2.83
2022-08-07T09:42:02.974Z,1.20
2022-08-07T09:47:24.874Z,2.00
2022-08-07T09:50:59.547Z,1.10
2022-08-07T09:53:41.109Z,1.63
2022-08-07T09:56:41.949Z,3.97
2022-08-07T10:00:01.245Z,0.63
2022-08-07T10:03:07.751Z,4.60
2022-08-07T10:06:17.479Z,1.00
2022-08-07T10:09:15.419Z,2.55
2022-08-07T10:12:15.142Z,3.08
2022-08-07T10:15:24.474Z,3.17
2022-08-07T10:18:26.577Z,2.22
2022-08-07T10:22:12.048Z,13.48
2022-08-07T10:24:57.897Z,1.90
2022-08-07T10:27:51.395Z,0.90
2022-08-07T10:30:26.537Z,4.25
2022-08-07T10:34:06.797Z,4.03
2022-08-07T10:36:29.980Z,4.32
2022-08-07T10:39:41.857Z,4.43
2022-08-07T10:42:37.570Z,1.70
2022-08-07T10:45:44.056Z,2.05
2022-08-07T10:48:58.192Z,2.00
2022-08-07T10:52:02.027Z,2.72
2022-08-07T10:54:41.156Z,4.78
2022-08-07T10:57:42.898Z,1.45
2022-08-07T11:00:36.177Z,2.92
2022-08-07T11:03:16.823Z,3.05
2022-08-07T11:08:41.435Z,2.30
2022-08-07T11:11:16.608Z,2.88
2022-08-07T11:14:44.286Z,3.55
2022-08-07T11:17:09.047Z,0.95
2022-08-07T11:22:26.330Z,1.08
2022-08-07T11:25:06.672Z,2.13
2022-08-07T11:28:02.319Z,1.45
2022-08-07T11:31:13.246Z,2.28
2022-08-07T11:33:53.769Z,2.83
2022-08-07T11:37:00.640Z,5.00
2022-08-07T11:40:00.588Z,8.05
2022-08-07T11:43:00.520Z,4.28
2022-08-07T11:46:01.502Z,3.33
2022-08-07T11:49:50.658Z,3.55
2022-08-07T11:52:29.431Z,3.40
2022-08-07T11:56:12.038Z,1.83
2022-08-07T11:58:21.053Z,4.15
2022-08-07T12:01:05.305Z,2.20
2022-08-07T12:03:42.179Z,5.53
2022-08-07T12:06:37.358Z,1.02
2022-08-07T12:09:16.454Z,2.08
2022-08-07T12:12:10.868Z,2.42
2022-08-07T12:14:51.441Z,2.95
2022-08-07T12:17:33.917Z,2.50
2022-08-07T12:20:30.834Z,1.50
2022-08-07T12:24:04.885Z,3.42
2022-08-07T12:26:46.086Z,2.58
2022-08-07T12:29:40.276Z,1.42
2022-08-07T12:32:38.605Z,2.22
2022-08-07T12:35:08.749Z,1.77
2022-08-07T12:38:10.081Z,2.70
2022-08-07T12:40:48.164Z,2.22
2022-08-07T12:44:03.503Z,1.75
2022-08-07T12:46:15.811Z,2.17
2022-08-07T12:49:25.524Z,2.70
2022-08-07T12:52:18.166Z,4.15
2022-08-07T12:55:17.629Z,1.65
2022-08-07T12:58:01.432Z,2.03
2022-08-07T13:00:49.942Z,3.97
2022-08-07T13:04:02.120Z,3.05
2022-08-07T13:06:54.183Z,2.15
2022-08-07T13:10:28.484Z,1.08
2022-08-07T13:13:13.570Z,4.05
2022-08-07T13:16:23.491Z,3.15
2022-08-07T13:19:18.150Z,3.45
2022-08-07T13:22:04.026Z,1.60
2022-08-07T13:24:52.537Z,3.15
2022-08-07T13:28:05.642Z,3.53
2022-08-07T13:30:19.346Z,2.88
2022-08-07T13:34:33.384Z,1.70
2022-08-07T13:36:19.625Z,1.88
2022-08-07T13:41:29.361Z,1.83
2022-08-07T13:44:00.936Z,3.33
2022-08-07T13:46:37.587Z,1.65
2022-08-07T13:50:33.799Z,3.33
2022-08-07T13:52:04.865Z,1.65
2022-08-07T13:54:36.835Z,4.10
2022-08-07T13:57:09.879Z,1.08
2022-08-07T13:59:54.894Z,2.28
2022-08-07T14:02:33.387Z,1.92
2022-08-07T14:05:12.802Z,2.35
2022-08-07T14:07:59.763Z,2.33
2022-08-07T14:10:41.930Z,2.47
2022-08-07T14:13:16.398Z,3.22
2022-08-07T14:15:52.000Z,6.38
2022-08-07T14:18:29.888Z,2.05
2022-08-07T14:21:20.601Z,1.50
2022-08-07T14:24:02.174Z,2.80
2022-08-07T14:26:51.086Z,1.95
2022-08-07T14:30:07.596Z,2.42
2022-08-07T14:32:12.241Z,2.40
2022-08-07T14:34:47.286Z,1.95
2022-08-07T14:37:19.493Z,1.20
2022-08-07T14:40:16.418Z,2.45
2022-08-07T14:43:00.978Z,4.40
2022-08-07T14:45:50.973Z,3.20
2022-08-07T14:48:33.093Z,1.58
2022-08-07T14:51:15.710Z,3.70
2022-08-07T14:54:08.640Z,1.90
2022-08-07T14:56:33.692Z,2.28
2022-08-07T15:01:58.617Z,3.13
2022-08-07T15:04:29.007Z,1.77
2022-08-07T15:06:57.472Z,1.05
2022-08-07T15:09:59.978Z,2.45
2022-08-07T15:12:26.058Z,4.80
2022-08-07T15:15:21.199Z,2.35
2022-08-07T15:17:59.959Z,1.88
2022-08-07T15:25:12.827Z,2.30
2022-08-07T15:26:22.511Z,4.03
2022-08-07T15:29:00.946Z,1.67
2022-08-07T15:38:17.995Z,1.88
2022-08-07T15:43:53.850Z,3.22
2022-08-07T15:49:14.688Z,2.25
2022-08-07T15:54:27.737Z,2.58
2022-08-07T15:56:58.246Z,2.28
2022-08-07T15:59:39.543Z,1.30
2022-08-07T16:02:15.295Z,1.80
2022-08-07T16:04:44.191Z,3.42
2022-08-07T16:08:28.577Z,1.73
2022-08-07T16:10:16.645Z,2.42
2022-08-07T16:12:58.162Z,2.75
2022-08-07T16:15:57.939Z,1.92
2022-08-07T16:18:50.053Z,2.70
2022-08-07T16:21:44.076Z,1.60
2022-08-07T16:24:52.818Z,2.83
2022-08-07T16:27:42.142Z,1.48
2022-08-07T16:30:31.522Z,4.03
2022-08-07T16:34:03.353Z,2.13
2022-08-07T16:36:21.071Z,2.38
2022-08-07T16:39:10.505Z,1.83
2022-08-07T16:42:02.187Z,1.67
2022-08-07T16:47:51.627Z,2.05
2022-08-07T16:50:38.896Z,5.63
2022-08-07T16:54:01.469Z,5.13
2022-08-07T16:56:27.296Z,1.70
2022-08-07T16:59:11.294Z,1.30
2022-08-07T17:02:03.617Z,1.02
2022-08-07T17:04:50.925Z,4.35
2022-08-07T17:07:55.288Z,1.67
2022-08-07T17:10:33.183Z,1.40
2022-08-07T17:13:20.008Z,3.75
2022-08-07T17:16:06.396Z,3.60
2022-08-07T17:18:46.070Z,2.88
2022-08-07T17:21:22.822Z,4.55
2022-08-07T17:24:28.960Z,3.60
2022-08-07T17:27:09.372Z,1.48
2022-08-07T17:30:15.192Z,1.38
2022-08-07T17:34:18.057Z,10.43
2022-08-07T17:36:21.580Z,4.85
2022-08-07T17:39:15.317Z,5.10
2022-08-07T17:42:06.551Z,4.60
2022-08-07T17:44:50.016Z,3.53
2022-08-07T17:47:42.259Z,8.23
2022-08-07T17:50:42.573Z,2.13
2022-08-07T17:54:01.171Z,2.00
2022-08-07T17:56:55.671Z,3.67
2022-08-07T17:59:35.750Z,4.43
2022-08-07T18:02:27.539Z,4.22
2022-08-07T18:05:20.934Z,4.15
2022-08-07T18:08:24.285Z,2.30
2022-08-07T18:12:06.676Z,8.27
2022-08-07T18:14:23.764Z,2.20
2022-08-07T18:16:58.184Z,4.50
2022-08-07T18:21:03.743Z,5.03
2022-08-07T18:22:34.119Z,3.03
2022-08-07T18:25:18.968Z,3.17
2022-08-07T18:28:34.283Z,7.50
2022-08-07T18:31:18.424Z,4.30
2022-08-07T18:33:55.382Z,5.90
2022-08-07T18:36:33.089Z,3.50
2022-08-07T18:40:05.183Z,4.78
2022-08-07T18:42:19.772Z,3.13
2022-08-07T18:45:44.124Z,4.68
2022-08-07T18:50:05.164Z,6.43
2022-08-07T18:52:34.781Z,3.08
2022-08-07T18:54:33.761Z,2.92
2022-08-07T18:57:30.525Z,4.50
2022-08-07T19:00:34.250Z,4.22
2022-08-07T19:03:11.596Z,4.47
2022-08-07T19:06:02.137Z,3.45
2022-08-07T19:08:46.401Z,3.03
2022-08-07T19:11:36.193Z,3.97
2022-08-07T19:14:20.236Z,3.28
2022-08-07T19:17:06.778Z,5.00
2022-08-07T19:20:02.951Z,6.53
2022-08-07T19:22:38.153Z,10.27
2022-08-07T19:26:25.067Z,3.97
2022-08-07T19:28:29.763Z,2.35
2022-08-07T19:31:37.142Z,3.85
2022-08-07T19:33:58.573Z,7.65
2022-08-07T19:36:28.068Z,6.53
2022-08-07T19:38:58.795Z,2.92
2022-08-07T19:41:39.402Z,7.88
2022-08-07T19:44:21.334Z,5.82
2022-08-07T19:46:55.690Z,8.25
2022-08-07T19:49:57.279Z,5.45
2022-08-07T19:52:18.111Z,7.65
2022-08-07T19:58:12.342Z,7.05
2022-08-07T20:00:55.315Z,4.70
2022-08-07T20:03:35.336Z,7.97
2022-08-07T20:06:05.080Z,5.57
2022-08-07T20:08:36.589Z,6.38
2022-08-07T20:11:10.170Z,5.95
2022-08-07T20:13:50.581Z,5.97
2022-08-07T20:16:35.608Z,6.70
2022-08-07T20:19:10.521Z,6.95
2022-08-07T20:21:41.812Z,5.47
2022-08-07T20:24:23.532Z,6.03
2022-08-07T20:26:59.106Z,8.50
2022-08-07T20:29:49.347Z,4.65
2022-08-07T20:32:36.202Z,3.95
2022-08-07T20:35:36.593Z,8.15
2022-08-07T20:38:22.597Z,6.27
2022-08-07T20:40:54.350Z,7.57
2022-08-07T20:43:25.463Z,4.63
2022-08-07T20:46:28.389Z,5.88
2022-08-07T20:49:54.037Z,6.05
2022-08-07T20:51:35.647Z,7.60
2022-08-07T20:54:12.384Z,10.27
2022-08-07T20:56:46.289Z,8.20
2022-08-07T21:02:38.380Z,5.57
2022-08-07T21:05:16.265Z,5.80
2022-08-07T21:07:49.526Z,9.43
2022-08-07T21:10:31.627Z,8.45
2022-08-07T21:13:04.729Z,9.25
2022-08-07T21:15:58.398Z,9.32
2022-08-07T21:18:29.491Z,7.75
2022-08-07T21:21:02.200Z,4.93
2022-08-07T21:24:08.322Z,9.85
2022-08-07T21:26:55.715Z,6.53
2022-08-07T21:29:39.963Z,6.78
2022-08-07T21:32:47.980Z,7.18
2022-08-07T21:35:34.593Z,9.32
2022-08-07T21:38:27.494Z,8.43
2022-08-07T21:41:14.029Z,7.60
2022-08-07T21:43:56.095Z,8.13
2022-08-07T21:46:47.653Z,8.65
2022-08-07T21:49:25.743Z,6.85
2022-08-07T21:52:11.550Z,10.75
2022-08-07T21:54:53.729Z,5.55
2022-08-07T21:57:52.547Z,9.30
2022-08-07T22:00:25.732Z,7.15
2022-08-07T22:03:30.704Z,10.93
2022-08-07T22:06:04.811Z,5.72
2022-08-07T22:08:43.703Z,9.20
2022-08-07T22:11:17.834Z,8.57
2022-08-07T22:13:51.015Z,7.38
2022-08-07T22:16:42.183Z,5.25
2022-08-07T22:19:23.806Z,7.35
2022-08-07T22:22:21.444Z,9.65
2022-08-07T22:25:11.316Z,4.78
2022-08-07T22:28:31.408Z,5.25
2022-08-07T22:32:00.467Z,4.45
2022-08-07T22:34:33.223Z,8.07
2022-08-07T22:38:02.748Z,7.53
2022-08-07T22:40:33.888Z,4.43
2022-08-07T22:43:14.121Z,4.60
2022-08-07T22:46:21.700Z,6.78
2022-08-07T22:48:56.257Z,7.30
2022-08-07T22:51:41.276Z,7.25
2022-08-07T22:54:24.669Z,9.95
2022-08-07T22:57:06.118Z,5.82
2022-08-07T23:00:17.963Z,7.82
2022-08-07T23:03:28.581Z,6.00
2022-08-07T23:06:23.907Z,14.27
2022-08-07T23:10:06.250Z,9.23
2022-08-07T23:12:10.461Z,12.55
2022-08-07T23:15:10.480Z,7.32
2022-08-07T23:18:04.829Z,6.05
2022-08-07T23:21:03.112Z,6.95
2022-08-07T23:24:05.855Z,8.50
2022-08-07T23:27:06.003Z,9.75
2022-08-07T23:30:37.395Z,8.52
2022-08-07T23:34:23.804Z,7.45
2022-08-07T23:36:17.453Z,8.98
2022-08-07T23:39:09.639Z,8.45
2022-08-07T23:42:08.512Z,8.07
2022-08-07T23:45:32.998Z,8.05
2022-08-07T23:49:07.497Z,11.02
2022-08-07T23:53:05.181Z,10.25
2022-08-07T23:54:52.113Z,10.05
2022-08-07T23:57:28.655Z,11.68
